Time;durP1;ratioP1;P1;durP2;ratioP2;P2;SDS_P1;SDS_P2;PMS_P1;PMS_P2;Temp;Humidity;BMP_temperature;BMP_pressure;BME280_temperature;BME280_humidity;BME280_pressure;Samples;Min_cycle;Max_cycle;Signal;HPM_P1;HPM_P2
2023/05/24 00:00:46;;;;;;;0.00;0.00;;;;;;;;;;5087671;28;20027;-88
2023/05/24 00:03:20;;;;;;;0.00;0.00;;;;;;;;;;5066149;28;20460;-89
2023/05/24 00:05:51;;;;;;;0.00;0.00;;;;;;;;;;5057950;28;20102;-89
2023/05/24 00:08:26;;;;;;;0.00;0.00;;;;;;;;;;5062921;28;20047;-88
2023/05/24 00:11:03;;;;;;;0.00;0.00;;;;;;;;;;5064987;28;20095;-88
2023/05/24 00:13:32;;;;;;;0.00;0.00;;;;;;;;;;5057829;28;20028;-89
2023/05/24 00:16:00;;;;;;;0.00;0.00;;;;;;;;;;5074878;28;20061;-87
2023/05/24 00:18:49;;;;;;;0.00;0.00;;;;;;;;;;5060378;28;20082;-89
2023/05/24 00:21:15;;;;;;;0.00;0.00;;;;;;;;;;5072883;28;20395;-86
2023/05/24 00:23:50;;;;;;;0.00;0.00;;;;;;;;;;5059819;28;20096;-89
2023/05/24 00:26:23;;;;;;;0.00;0.00;;;;;;;;;;5056015;28;20028;-88
2023/05/24 00:28:52;;;;;;;0.00;0.00;;;;;;;;;;5057465;28;20456;-90
2023/05/24 00:31:30;;;;;;;0.00;0.00;;;;;;;;;;5072617;28;20155;-90
2023/05/24 00:34:01;;;;;;;0.00;0.00;;;;;;;;;;5056361;28;20108;-87
2023/05/24 00:36:29;;;;;;;0.00;0.00;;;;;;;;;;5064843;28;20437;-89
2023/05/24 00:39:14;;;;;;;0.00;0.00;;;;;;;;;;5057528;28;20025;-88
2023/05/24 00:41:55;;;;;;;0.00;0.00;;;;;;;;;;5079520;28;20038;-88
2023/05/24 00:44:30;;;;;;;0.00;0.00;;;;;;;;;;5063333;28;20083;-88
2023/05/24 00:46:56;;;;;;;0.00;0.00;;;;;;;;;;5058662;28;20020;-89
2023/05/24 00:49:36;;;;;;;0.00;0.00;;;;;;;;;;5060612;28;20039;-89
2023/05/24 00:52:08;;;;;;;0.00;0.00;;;;;;;;;;5079438;28;20083;-87
2023/05/24 00:54:47;;;;;;;0.00;0.00;;;;;;;;;;5065207;28;20056;-89
2023/05/24 00:57:17;;;;;;;0.00;0.00;;;;;;;;;;5057470;28;20079;-89
2023/05/24 01:00:06;;;;;;;0.00;0.00;;;;;;;;;;5060730;28;20586;-90
2023/05/24 01:02:38;;;;;;;0.00;0.00;;;;;;;;;;5059167;28;20165;-90
2023/05/24 01:05:41;;;;;;;0.00;0.00;;;;;;;;;;5081899;28;20028;-89
2023/05/24 01:08:21;;;;;;;0.43;0.43;;;;;;;;;;5065252;28;20096;-90
2023/05/24 01:11:05;;;;;;;0.00;0.00;;;;;;;;;;5072128;28;20438;-91
2023/05/24 01:13:44;;;;;;;0.00;0.00;;;;;;;;;;5085438;28;20032;-89
2023/05/24 01:16:31;;;;;;;0.00;0.00;;;;;;;;;;5061022;28;20419;-91
2023/05/24 01:19:26;;;;;;;;;;;;;;;;;;;;;
2023/05/24 01:22:14;;;;;;;0.00;0.00;;;;;;;;;;5075385;28;20087;-89
2023/05/24 01:25:02;;;;;;;0.00;0.00;;;;;;;;;;5076793;28;20028;-89
2023/05/24 01:27:30;;;;;;;0.00;0.00;;;;;;;;;;5064000;28;20027;-89
2023/05/24 01:29:56;;;;;;;0.00;0.00;;;;;;;;;;5061257;28;20024;-88
2023/05/24 01:32:37;;;;;;;0.00;0.00;;;;;;;;;;5063615;28;20063;-88
2023/05/24 01:35:13;;;;;;;0.00;0.00;;;;;;;;;;5064104;28;20047;-90
2023/05/24 01:38:15;;;;;;;0.00;0.00;;;;;;;;;;5061405;28;20024;-90
2023/05/24 01:44:40;;;;;;;0.00;0.00;;;;;;;;;;5058740;28;20062;-91
2023/05/24 01:47:28;;;;;;;0.00;0.00;;;;;;;;;;5069574;28;20024;-90
2023/05/24 01:50:27;;;;;;;0.00;0.00;;;;;;;;;;5076449;28;20033;-92
2023/05/24 01:52:57;;;;;;;0.00;0.00;;;;;;;;;;5047116;28;20126;-88
2023/05/24 01:55:26;;;;;;;;;;;;;;;;;;5061369;28;20430;-91
2023/05/24 01:57:57;;;;;;;0.00;0.00;;;;;;;;;;5061709;28;20329;-91
2023/05/24 02:00:24;;;;;;;0.00;0.00;;;;;;;;;;5059519;28;20028;-91
2023/05/24 02:02:54;;;;;;;0.00;0.00;;;;;;;;;;5061337;28;20025;-91
2023/05/24 02:05:23;;;;;;;0.00;0.00;;;;;;;;;;5058893;28;20040;-90
2023/05/24 02:07:54;;;;;;;0.00;0.00;;;;;;;;;;5057184;28;20107;-90
2023/05/24 02:10:23;;;;;;;0.00;0.00;;;;;;;;;;5079373;28;20044;-92
2023/05/24 02:12:51;;;;;;;0.00;0.00;;;;;;;;;;5071478;28;20029;-89
2023/05/24 02:15:17;;;;;;;0.00;0.00;;;;;;;;;;5058472;28;20036;-92
2023/05/24 02:17:53;;;;;;;0.20;0.20;;;;;;;;;;5061136;28;20036;-92
2023/05/24 02:20:25;;;;;;;0.00;0.00;;;;;;;;;;5066031;28;20468;-91
2023/05/24 02:22:51;;;;;;;0.00;0.00;;;;;;;;;;5089595;28;20094;-91
2023/05/24 02:25:27;;;;;;;0.00;0.00;;;;;;;;;;5066486;28;20028;-90
2023/05/24 02:28:00;;;;;;;0.00;0.00;;;;;;;;;;5064596;28;20039;-89
2023/05/24 02:30:32;;;;;;;0.00;0.00;;;;;;;;;;5069453;28;20398;-89
2023/05/24 02:33:02;;;;;;;0.00;0.00;;;;;;;;;;5084317;28;20090;-89
2023/05/24 02:35:44;;;;;;;0.00;0.00;;;;;;;;;;5058087;28;20028;-91
2023/05/24 02:38:10;;;;;;;0.00;0.00;;;;;;;;;;5059859;28;20078;-89
2023/05/24 02:40:36;;;;;;;0.00;0.00;;;;;;;;;;5058500;28;20422;-92
2023/05/24 02:43:01;;;;;;;0.10;0.10;;;;;;;;;;5061507;28;20023;-91
2023/05/24 02:45:32;;;;;;;1.27;0.30;;;;;;;;;;5061374;28;20112;-91
2023/05/24 02:47:58;;;;;;;0.03;0.03;;;;;;;;;;5063313;28;20077;-90
2023/05/24 02:50:36;;;;;;;0.00;0.00;;;;;;;;;;5074564;28;20028;-91
2023/05/24 02:53:05;;;;;;;0.00;0.00;;;;;;;;;;5067376;28;20036;-89
2023/05/24 02:55:33;;;;;;;0.00;0.00;;;;;;;;;;5069205;28;20020;-91
2023/05/24 02:57:58;;;;;;;0.08;0.08;;;;;;;;;;5091790;28;20067;-91
2023/05/24 03:00:27;;;;;;;0.00;0.00;;;;;;;;;;5067563;28;20036;-90
2023/05/24 03:02:55;;;;;;;0.00;0.00;;;;;;;;;;5075061;28;20376;-89
2023/05/24 03:05:24;;;;;;;0.00;0.00;;;;;;;;;;5073099;28;20028;-91
2023/05/24 03:07:49;;;;;;;0.00;0.00;;;;;;;;;;5066602;28;20025;-91
2023/05/24 03:10:30;;;;;;;0.00;0.00;;;;;;;;;;5073166;28;20047;-92
2023/05/24 03:13:11;;;;;;;;;;;;;;;;;;;;;
2023/05/24 03:15:39;;;;;;;0.00;0.00;;;;;;;;;;5086182;28;20115;-90
2023/05/24 03:18:05;;;;;;;0.00;0.00;;;;;;;;;;5067278;28;20033;-93
2023/05/24 03:20:32;;;;;;;0.20;0.20;;;;;;;;;;5073111;28;20079;-92
2023/05/24 03:23:01;;;;;;;0.00;0.00;;;;;;;;;;5074842;28;20036;-92
2023/05/24 03:25:35;;;;;;;0.10;0.10;;;;;;;;;;5078538;28;20024;-92
2023/05/24 03:28:03;;;;;;;0.10;0.10;;;;;;;;;;5065834;28;20422;-93
2023/05/24 03:30:32;;;;;;;0.00;0.00;;;;;;;;;;5069213;28;20036;-90
2023/05/24 03:33:08;;;;;;;0.00;0.00;;;;;;;;;;5090650;28;20031;-91
2023/05/24 03:35:34;;;;;;;0.00;0.00;;;;;;;;;;5085819;28;20043;-90
2023/05/24 03:38:09;;;;;;;0.00;0.00;;;;;;;;;;5067287;28;20029;-90
2023/05/24 03:40:35;;;;;;;0.22;0.22;;;;;;;;;;5065014;28;20047;-90
2023/05/24 03:43:01;;;;;;;0.00;0.00;;;;;;;;;;5065872;28;20078;-89
2023/05/24 03:45:27;;;;;;;0.43;0.43;;;;;;;;;;5092142;28;20027;-90
2023/05/24 03:48:02;;;;;;;0.00;0.00;;;;;;;;;;5088478;28;20028;-91
2023/05/24 03:50:33;;;;;;;0.00;0.00;;;;;;;;;;5067823;28;20024;-90
2023/05/24 03:53:05;;;;;;;0.00;0.00;;;;;;;;;;5065232;28;20031;-90
2023/05/24 03:55:34;;;;;;;0.00;0.00;;;;;;;;;;5063660;28;20023;-91
2023/05/24 03:58:07;;;;;;;0.00;0.00;;;;;;;;;;5063375;28;20023;-90
2023/05/24 04:00:35;;;;;;;0.00;0.00;;;;;;;;;;5057197;28;20036;-89
2023/05/24 04:03:32;;;;;;;0.00;0.00;;;;;;;;;;5059310;28;20478;-91
2023/05/24 04:06:11;;;;;;;0.20;0.20;;;;;;;;;;5054130;28;20092;-89
2023/05/24 04:08:42;;;;;;;0.00;0.00;;;;;;;;;;5064661;28;20025;-90
2023/05/24 04:11:18;;;;;;;0.00;0.00;;;;;;;;;;5067469;28;20058;-90
2023/05/24 04:13:47;;;;;;;0.03;0.03;;;;;;;;;;5069393;28;20100;-89
2023/05/24 04:16:16;;;;;;;0.00;0.00;;;;;;;;;;5069380;28;20029;-92
2023/05/24 04:18:47;;;;;;;0.00;0.00;;;;;;;;;;5070448;28;20064;-88
2023/05/24 04:21:36;;;;;;;0.00;0.00;;;;;;;;;;5071018;28;20429;-90
2023/05/24 04:24:05;;;;;;;0.00;0.00;;;;;;;;;;5064888;28;20085;-93
2023/05/24 04:26:38;;;;;;;0.00;0.00;;;;;;;;;;5063693;28;20024;-92
2023/05/24 04:29:11;;;;;;;0.00;0.00;;;;;;;;;;5084259;28;20038;-90
2023/05/24 04:32:01;;;;;;;0.00;0.00;;;;;;;;;;5083487;28;20352;-86
2023/05/24 04:34:32;;;;;;;0.00;0.00;;;;;;;;;;5088160;28;20071;-90
2023/05/24 04:37:02;;;;;;;0.00;0.00;;;;;;;;;;5063228;28;20445;-90
2023/05/24 04:39:41;;;;;;;;;;;;;;;;;;5063693;28;20034;-88
2023/05/24 04:42:41;;;;;;;0.00;0.00;;;;;;;;;;5084877;28;20279;-89
2023/05/24 04:45:18;;;;;;;0.00;0.00;;;;;;;;;;5080398;28;20073;-88
2023/05/24 04:48:16;;;;;;;0.00;0.00;;;;;;;;;;5071827;28;20032;-91
2023/05/24 04:50:42;;;;;;;0.00;0.00;;;;;;;;;;5047038;28;20036;-92
2023/05/24 04:53:07;;;;;;;0.00;0.00;;;;;;;;;;5081785;28;20036;-89
2023/05/24 04:55:32;;;;;;;0.00;0.00;;;;;;;;;;5079332;28;20115;-91
2023/05/24 04:57:58;;;;;;;0.00;0.00;;;;;;;;;;5065132;28;20495;-89
2023/05/24 05:00:23;;;;;;;0.10;0.10;;;;;;;;;;5077764;28;20127;-89
2023/05/24 05:02:49;;;;;;;0.00;0.00;;;;;;;;;;5065497;28;20025;-90
2023/05/24 05:05:15;;;;;;;0.05;0.05;;;;;;;;;;5088452;28;20078;-91
2023/05/24 05:07:40;;;;;;;0.00;0.00;;;;;;;;;;5084548;28;20028;-90
2023/05/24 05:10:06;;;;;;;0.22;0.10;;;;;;;;;;5075879;28;20083;-91
2023/05/24 05:12:32;;;;;;;0.00;0.00;;;;;;;;;;5075457;28;20028;-92
2023/05/24 05:14:57;;;;;;;0.00;0.00;;;;;;;;;;5082038;28;20440;-90
2023/05/24 05:17:23;;;;;;;0.00;0.00;;;;;;;;;;5060763;28;20028;-87
2023/05/24 05:19:48;;;;;;;0.00;0.00;;;;;;;;;;5074013;28;20056;-87
2023/05/24 05:22:13;;;;;;;0.00;0.00;;;;;;;;;;5077358;28;20494;-86
2023/05/24 05:24:39;;;;;;;0.00;0.00;;;;;;;;;;5078866;28;20036;-89
2023/05/24 05:27:05;;;;;;;0.00;0.00;;;;;;;;;;5060596;28;20429;-86
2023/05/24 05:29:30;;;;;;;0.52;0.52;;;;;;;;;;5076971;28;20532;-88
2023/05/24 05:31:56;;;;;;;0.00;0.00;;;;;;;;;;5059458;28;20169;-88
2023/05/24 05:34:21;;;;;;;0.00;0.00;;;;;;;;;;5059844;28;20028;-86
2023/05/24 05:36:47;;;;;;;0.00;0.00;;;;;;;;;;5058585;28;20072;-88
2023/05/24 05:39:12;;;;;;;0.22;0.22;;;;;;;;;;5080789;28;20569;-89
2023/05/24 05:41:38;;;;;;;0.00;0.00;;;;;;;;;;5060327;28;20035;-85
2023/05/24 05:44:04;;;;;;;0.00;0.00;;;;;;;;;;5057414;28;20030;-90
2023/05/24 05:46:30;;;;;;;0.00;0.00;;;;;;;;;;5053560;28;20091;-87
2023/05/24 05:48:56;;;;;;;0.00;0.00;;;;;;;;;;5080634;28;20049;-89
2023/05/24 05:51:22;;;;;;;0.08;0.08;;;;;;;;;;5059505;28;20043;-84
2023/05/24 05:53:47;;;;;;;0.00;0.00;;;;;;;;;;5084565;28;20024;-90
2023/05/24 05:56:12;;;;;;;0.00;0.00;;;;;;;;;;5080067;28;20056;-87
2023/05/24 05:58:38;;;;;;;0.00;0.00;;;;;;;;;;5084760;28;20027;-88
2023/05/24 06:01:11;;;;;;;0.13;0.13;;;;;;;;;;5063188;28;20050;-87
2023/05/24 06:03:37;;;;;;;0.00;0.00;;;;;;;;;;5067460;28;20020;-88
2023/05/24 06:06:02;;;;;;;0.00;0.00;;;;;;;;;;5074633;28;20035;-86
2023/05/24 06:08:33;;;;;;;0.00;0.00;;;;;;;;;;5057097;28;20047;-87
2023/05/24 06:10:59;;;;;;;0.10;0.10;;;;;;;;;;5075585;28;20496;-90
2023/05/24 06:13:25;;;;;;;0.00;0.00;;;;;;;;;;5080271;28;20036;-87
2023/05/24 06:15:51;;;;;;;0.00;0.00;;;;;;;;;;5081205;28;20048;-86
2023/05/24 06:18:17;;;;;;;0.00;0.00;;;;;;;;;;5056669;28;20024;-85
2023/05/24 06:20:44;;;;;;;0.22;0.22;;;;;;;;;;5084106;28;20472;-85
2023/05/24 06:23:09;;;;;;;0.00;0.00;;;;;;;;;;5082182;28;20038;-85
2023/05/24 06:25:37;;;;;;;0.00;0.00;;;;;;;;;;5056935;28;20880;-83
2023/05/24 06:28:03;;;;;;;0.00;0.00;;;;;;;;;;5078754;28;20058;-84
2023/05/24 06:30:28;;;;;;;0.00;0.00;;;;;;;;;;5078766;28;20049;-87
2023/05/24 06:32:53;;;;;;;0.00;0.00;;;;;;;;;;5081661;28;20028;-83
2023/05/24 06:35:19;;;;;;;0.00;0.00;;;;;;;;;;5076966;28;20025;-86
2023/05/24 06:37:44;;;;;;;0.00;0.00;;;;;;;;;;5080121;28;20035;-83
2023/05/24 06:40:10;;;;;;;0.10;0.10;;;;;;;;;;5074788;28;20056;-85
2023/05/24 06:42:38;;;;;;;0.03;0.03;;;;;;;;;;5086085;28;20423;-84
2023/05/24 06:45:03;;;;;;;0.20;0.10;;;;;;;;;;5058432;28;20436;-81
2023/05/24 06:47:29;;;;;;;0.15;0.15;;;;;;;;;;5075338;28;20060;-84
2023/05/24 06:49:55;;;;;;;0.00;0.00;;;;;;;;;;5077643;28;20069;-86
2023/05/24 06:52:21;;;;;;;0.00;0.00;;;;;;;;;;5086990;28;20379;-83
2023/05/24 06:54:47;;;;;;;0.00;0.00;;;;;;;;;;5080580;28;20019;-84
2023/05/24 06:57:13;;;;;;;0.00;0.00;;;;;;;;;;5060246;28;20056;-85
2023/05/24 06:59:38;;;;;;;0.00;0.00;;;;;;;;;;5074070;28;20052;-84
2023/05/24 07:02:03;;;;;;;0.00;0.00;;;;;;;;;;5081131;28;20369;-85
2023/05/24 07:04:29;;;;;;;0.00;0.00;;;;;;;;;;5078626;28;20024;-83
2023/05/24 07:06:54;;;;;;;0.00;0.00;;;;;;;;;;5080355;28;20384;-87
2023/05/24 07:09:20;;;;;;;0.00;0.00;;;;;;;;;;5075273;28;20085;-84
2023/05/24 07:11:45;;;;;;;0.00;0.00;;;;;;;;;;5072520;28;20077;-83
2023/05/24 07:14:11;;;;;;;0.00;0.00;;;;;;;;;;5067707;28;20024;-83
2023/05/24 07:16:36;;;;;;;0.00;0.00;;;;;;;;;;5074348;28;20426;-80
2023/05/24 07:19:02;;;;;;;0.00;0.00;;;;;;;;;;5072312;28;20412;-83
2023/05/24 07:21:27;;;;;;;0.00;0.00;;;;;;;;;;5054396;28;20031;-84
2023/05/24 07:23:52;;;;;;;0.00;0.00;;;;;;;;;;5077206;28;20619;-84
2023/05/24 07:26:18;;;;;;;0.00;0.00;;;;;;;;;;5072743;28;20020;-83
2023/05/24 07:28:43;;;;;;;0.00;0.00;;;;;;;;;;5073863;28;20038;-82
2023/05/24 07:31:09;;;;;;;0.08;0.08;;;;;;;;;;5075830;28;20446;-84
2023/05/24 07:33:36;;;;;;;0.00;0.00;;;;;;;;;;5076888;28;20032;-84
2023/05/24 07:36:03;;;;;;;0.00;0.00;;;;;;;;;;5083744;28;20384;-84
2023/05/24 07:38:29;;;;;;;0.00;0.00;;;;;;;;;;5061888;28;20026;-83
2023/05/24 07:40:57;;;;;;;0.00;0.00;;;;;;;;;;5079491;28;20432;-84
2023/05/24 07:43:23;;;;;;;0.10;0.08;;;;;;;;;;5056800;28;20020;-83
2023/05/24 07:45:48;;;;;;;0.00;0.00;;;;;;;;;;5081231;28;20116;-86
2023/05/24 07:48:14;;;;;;;0.13;0.10;;;;;;;;;;5080101;28;20032;-86
2023/05/24 07:50:39;;;;;;;0.00;0.00;;;;;;;;;;5080140;28;20032;-86
2023/05/24 07:53:05;;;;;;;0.00;0.00;;;;;;;;;;5067464;28;20055;-85
2023/05/24 07:55:30;;;;;;;0.00;0.00;;;;;;;;;;5078163;28;20030;-87
2023/05/24 07:57:55;;;;;;;0.00;0.00;;;;;;;;;;5083507;28;20081;-85
2023/05/24 08:00:21;;;;;;;0.10;0.10;;;;;;;;;;5049853;28;20059;-85
2023/05/24 08:02:47;;;;;;;0.00;0.00;;;;;;;;;;5073111;28;20031;-88
2023/05/24 08:05:13;;;;;;;0.00;0.00;;;;;;;;;;5067433;28;20107;-86
2023/05/24 08:07:40;;;;;;;0.00;0.00;;;;;;;;;;5077695;28;20028;-85
2023/05/24 08:10:06;;;;;;;0.00;0.00;;;;;;;;;;5077560;28;20067;-80
2023/05/24 08:12:32;;;;;;;0.00;0.00;;;;;;;;;;5074583;28;20024;-79
2023/05/24 08:14:57;;;;;;;0.00;0.00;;;;;;;;;;5084728;28;20031;-83
2023/05/24 08:17:23;;;;;;;0.00;0.00;;;;;;;;;;5060013;28;20495;-86
2023/05/24 08:19:49;;;;;;;0.10;0.10;;;;;;;;;;5060577;28;20034;-86
2023/05/24 08:22:15;;;;;;;0.00;0.00;;;;;;;;;;5057461;28;20509;-85
2023/05/24 08:24:40;;;;;;;0.00;0.00;;;;;;;;;;5055616;28;20026;-87
2023/05/24 08:27:06;;;;;;;0.00;0.00;;;;;;;;;;5060482;28;20357;-84
2023/05/24 08:29:32;;;;;;;0.00;0.00;;;;;;;;;;5078584;28;20024;-80
2023/05/24 08:31:57;;;;;;;0.00;0.00;;;;;;;;;;5073016;28;20103;-83
2023/05/24 08:34:22;;;;;;;0.00;0.00;;;;;;;;;;5081148;28;20036;-82
2023/05/24 08:36:48;;;;;;;0.00;0.00;;;;;;;;;;5073461;28;20429;-87
2023/05/24 08:39:14;;;;;;;0.00;0.00;;;;;;;;;;5074641;28;20464;-82
2023/05/24 08:41:40;;;;;;;0.03;0.03;;;;;;;;;;5077847;28;20123;-84
2023/05/24 08:44:06;;;;;;;0.00;0.00;;;;;;;;;;5059163;28;20066;-84
2023/05/24 08:46:35;;;;;;;0.00;0.00;;;;;;;;;;5080393;28;20110;-82
2023/05/24 08:49:04;;;;;;;0.00;0.00;;;;;;;;;;5075703;28;20784;-85
2023/05/24 08:51:30;;;;;;;0.00;0.00;;;;;;;;;;5077568;28;20440;-85
2023/05/24 08:53:58;;;;;;;0.00;0.00;;;;;;;;;;5077753;28;20752;-83
2023/05/24 08:56:33;;;;;;;0.00;0.00;;;;;;;;;;5079365;28;20032;-83
2023/05/24 08:59:00;;;;;;;0.00;0.00;;;;;;;;;;5082109;28;20062;-86
2023/05/24 09:01:26;;;;;;;0.00;0.00;;;;;;;;;;5082338;28;20020;-85
2023/05/24 09:03:52;;;;;;;0.00;0.00;;;;;;;;;;5074943;28;20110;-86
2023/05/24 09:06:18;;;;;;;0.00;0.00;;;;;;;;;;5088106;28;20024;-87
2023/05/24 09:08:53;;;;;;;0.00;0.00;;;;;;;;;;5062395;28;20384;-85
2023/05/24 09:11:27;;;;;;;0.00;0.00;;;;;;;;;;5059509;28;20040;-86
2023/05/24 09:13:54;;;;;;;0.00;0.00;;;;;;;;;;5063595;28;20136;-81
2023/05/24 09:16:20;;;;;;;0.00;0.00;;;;;;;;;;5078578;28;20031;-86
2023/05/24 09:18:46;;;;;;;0.00;0.00;;;;;;;;;;5058990;28;20044;-91
2023/05/24 09:21:25;;;;;;;;;;;;;;;;;;;;;
2023/05/24 09:24:10;;;;;;;0.00;0.00;;;;;;;;;;5082237;28;20016;-88
2023/05/24 09:26:36;;;;;;;0.00;0.00;;;;;;;;;;5056233;28;20249;-84
2023/05/24 09:29:08;;;;;;;0.00;0.00;;;;;;;;;;5080617;28;20441;-84
2023/05/24 09:31:42;;;;;;;0.00;0.00;;;;;;;;;;5062372;28;20055;-87
2023/05/24 09:34:14;;;;;;;0.00;0.00;;;;;;;;;;5054951;28;20450;-85
2023/05/24 09:36:41;;;;;;;0.00;0.00;;;;;;;;;;5075677;28;20024;-84
2023/05/24 09:39:15;;;;;;;0.00;0.00;;;;;;;;;;5061253;28;20036;-85
2023/05/24 09:44:43;;;;;;;;;;;;;;;;;;5085982;28;20020;-82
2023/05/24 09:47:13;;;;;;;0.00;0.00;;;;;;;;;;5092022;28;19918;-81
2023/05/24 09:49:53;;;;;;;0.00;0.00;;;;;;;;;;5080641;28;20506;-84
2023/05/24 09:52:20;;;;;;;;;;;;;;;;;;5078640;28;20384;-84
2023/05/24 09:54:48;;;;;;;0.00;0.00;;;;;;;;;;5064539;28;19963;-83
2023/05/24 09:57:21;;;;;;;0.00;0.00;;;;;;;;;;5058245;28;20024;-90
2023/05/24 09:59:47;;;;;;;0.00;0.00;;;;;;;;;;5063486;28;20027;-83
2023/05/24 10:02:12;;;;;;;0.00;0.00;;;;;;;;;;5084526;28;20029;-85
2023/05/24 10:04:51;;;;;;;0.00;0.00;;;;;;;;;;5058854;28;20492;-81
2023/05/24 10:07:25;;;;;;;0.00;0.00;;;;;;;;;;5060257;28;20443;-87
2023/05/24 10:09:59;;;;;;;0.00;0.00;;;;;;;;;;5082036;28;20189;-90
2023/05/24 10:12:26;;;;;;;0.70;0.30;;;;;;;;;;5062631;28;20028;-84
2023/05/24 10:15:11;;;;;;;0.10;0.10;;;;;;;;;;5082579;28;20036;-87
2023/05/24 10:17:37;;;;;;;0.00;0.00;;;;;;;;;;5059320;28;20033;-86
2023/05/24 10:20:07;;;;;;;0.00;0.00;;;;;;;;;;5081751;28;20166;-84
2023/05/24 10:22:43;;;;;;;0.00;0.00;;;;;;;;;;5071199;28;20380;-88
2023/05/24 10:25:13;;;;;;;0.00;0.00;;;;;;;;;;5068164;28;20039;-84
2023/05/24 10:27:47;;;;;;;0.00;0.00;;;;;;;;;;5063650;28;20032;-83
2023/05/24 10:30:36;;;;;;;0.20;0.10;;;;;;;;;;5083512;28;20027;-83
2023/05/24 10:33:09;;;;;;;0.00;0.00;;;;;;;;;;5055701;28;20040;-83
2023/05/24 10:35:36;;;;;;;0.00;0.00;;;;;;;;;;5077376;28;20071;-84
2023/05/24 10:38:09;;;;;;;0.00;0.00;;;;;;;;;;5052789;28;20033;-83
2023/05/24 10:40:40;;;;;;;0.10;0.10;;;;;;;;;;5065837;28;20081;-82
2023/05/24 10:43:07;;;;;;;0.00;0.00;;;;;;;;;;5084638;28;20020;-81
2023/05/24 10:45:36;;;;;;;0.00;0.00;;;;;;;;;;5071258;28;20028;-82
2023/05/24 10:48:17;;;;;;;0.00;0.00;;;;;;;;;;5086858;28;20032;-81
2023/05/24 10:50:43;;;;;;;0.00;0.00;;;;;;;;;;5058606;28;20127;-82
2023/05/24 10:53:16;;;;;;;0.00;0.00;;;;;;;;;;5071796;28;20082;-81
2023/05/24 10:55:54;;;;;;;0.08;0.08;;;;;;;;;;5081593;28;20020;-82
2023/05/24 10:58:22;;;;;;;0.47;0.15;;;;;;;;;;5058414;28;20105;-83
2023/05/24 11:00:50;;;;;;;0.32;0.32;;;;;;;;;;5079568;28;20032;-82
2023/05/24 11:03:22;;;;;;;0.00;0.00;;;;;;;;;;5082146;28;20024;-83
2023/05/24 11:05:50;;;;;;;0.00;0.00;;;;;;;;;;5082275;28;20099;-83
2023/05/24 11:08:24;;;;;;;0.00;0.00;;;;;;;;;;5076988;28;20071;-83
2023/05/24 11:11:00;;;;;;;0.00;0.00;;;;;;;;;;5082988;28;20492;-83
2023/05/24 11:13:26;;;;;;;0.10;0.10;;;;;;;;;;5081548;28;20035;-84
2023/05/24 11:15:52;;;;;;;0.00;0.00;;;;;;;;;;5077641;28;20028;-83
2023/05/24 11:18:22;;;;;;;0.00;0.00;;;;;;;;;;5077637;28;20095;-81
2023/05/24 11:20:47;;;;;;;0.00;0.00;;;;;;;;;;5077249;28;20879;-84
2023/05/24 11:23:14;;;;;;;0.00;0.00;;;;;;;;;;5079857;28;20016;-81
2023/05/24 11:25:40;;;;;;;0.00;0.00;;;;;;;;;;5078685;28;20039;-85
2023/05/24 11:28:11;;;;;;;0.00;0.00;;;;;;;;;;5076713;28;20103;-85
2023/05/24 11:30:40;;;;;;;0.00;0.00;;;;;;;;;;5080893;28;20502;-82
2023/05/24 11:33:22;;;;;;;0.00;0.00;;;;;;;;;;5076384;28;20370;-84
2023/05/24 11:35:50;;;;;;;0.00;0.00;;;;;;;;;;5077965;28;20043;-83
2023/05/24 11:38:17;;;;;;;0.00;0.00;;;;;;;;;;5077041;28;20054;-83
2023/05/24 11:40:45;;;;;;;0.05;0.05;;;;;;;;;;5055264;28;20563;-81
2023/05/24 11:43:16;;;;;;;0.13;0.13;;;;;;;;;;5078204;28;20027;-83
2023/05/24 11:45:43;;;;;;;0.00;0.00;;;;;;;;;;5083254;28;20032;-84
2023/05/24 11:48:10;;;;;;;0.10;0.10;;;;;;;;;;5083355;28;20028;-87
2023/05/24 11:50:42;;;;;;;0.00;0.00;;;;;;;;;;5081748;28;20024;-86
2023/05/24 11:53:13;;;;;;;0.08;0.08;;;;;;;;;;5058595;28;20073;-86
2023/05/24 11:55:42;;;;;;;0.00;0.00;;;;;;;;;;5078232;28;20467;-87
2023/05/24 11:58:29;;;;;;;0.10;0.10;;;;;;;;;;5073795;28;20396;-87
2023/05/24 12:00:54;;;;;;;0.20;0.20;;;;;;;;;;5058344;28;20031;-86
2023/05/24 12:03:20;;;;;;;0.00;0.00;;;;;;;;;;5082263;28;20047;-86
2023/05/24 12:05:46;;;;;;;0.03;0.03;;;;;;;;;;5079402;28;20035;-87
2023/05/24 12:08:14;;;;;;;0.00;0.00;;;;;;;;;;5078070;28;20035;-87
2023/05/24 12:10:41;;;;;;;0.20;0.20;;;;;;;;;;5079036;28;20062;-85
2023/05/24 12:13:21;;;;;;;0.00;0.00;;;;;;;;;;5079446;28;20466;-86
2023/05/24 12:15:52;;;;;;;0.10;0.10;;;;;;;;;;5060310;28;20035;-84
2023/05/24 12:18:19;;;;;;;0.25;0.13;;;;;;;;;;5076768;28;20073;-87
2023/05/24 12:20:47;;;;;;;0.10;0.10;;;;;;;;;;5078514;28;20016;-88
2023/05/24 12:23:13;;;;;;;0.05;0.05;;;;;;;;;;5081392;28;20047;-85
2023/05/24 12:25:39;;;;;;;0.93;0.63;;;;;;;;;;5054881;28;20372;-84
2023/05/24 12:28:04;;;;;;;0.10;0.10;;;;;;;;;;5072567;28;20077;-81
2023/05/24 12:30:30;;;;;;;0.17;0.03;;;;;;;;;;5072199;28;20032;-85
2023/05/24 12:32:56;;;;;;;0.10;0.10;;;;;;;;;;5073040;28;20032;-85
2023/05/24 12:35:22;;;;;;;0.00;0.00;;;;;;;;;;5077182;28;20115;-86
2023/05/24 12:37:48;;;;;;;0.00;0.00;;;;;;;;;;5076871;28;20028;-84
2023/05/24 12:40:22;;;;;;;0.22;0.15;;;;;;;;;;5073691;28;20474;-81
2023/05/24 12:42:55;;;;;;;0.10;0.10;;;;;;;;;;5074139;28;20028;-84
2023/05/24 12:45:25;;;;;;;0.05;0.05;;;;;;;;;;5070913;28;20427;-85
2023/05/24 12:47:51;;;;;;;0.00;0.00;;;;;;;;;;5072524;28;20020;-85
2023/05/24 12:50:21;;;;;;;0.05;0.05;;;;;;;;;;5051357;28;20028;-84
2023/05/24 12:52:51;;;;;;;0.10;0.10;;;;;;;;;;5068819;28;20056;-86
2023/05/24 12:55:17;;;;;;;0.05;0.05;;;;;;;;;;5080390;28;20048;-83
2023/05/24 12:57:43;;;;;;;0.20;0.20;;;;;;;;;;5075439;28;20039;-85
2023/05/24 13:00:10;;;;;;;0.00;0.00;;;;;;;;;;5072517;28;20447;-84
2023/05/24 13:02:39;;;;;;;0.25;0.13;;;;;;;;;;5072822;28;20484;-84
2023/05/24 13:05:06;;;;;;;0.10;0.10;;;;;;;;;;5092854;28;20114;-82
2023/05/24 13:07:32;;;;;;;0.08;0.08;;;;;;;;;;5070998;28;20120;-86
2023/05/24 13:09:58;;;;;;;1.35;0.45;;;;;;;;;;5076704;28;20132;-85
2023/05/24 13:12:24;;;;;;;0.10;0.10;;;;;;;;;;5072138;28;20028;-83
2023/05/24 13:14:49;;;;;;;0.13;0.13;;;;;;;;;;5074852;28;20548;-85
2023/05/24 13:17:16;;;;;;;0.03;0.03;;;;;;;;;;5074686;28;20035;-87
2023/05/24 13:19:42;;;;;;;0.50;0.20;;;;;;;;;;5069975;28;20021;-83
2023/05/24 13:22:07;;;;;;;0.15;0.15;;;;;;;;;;5073952;28;20365;-85
2023/05/24 13:24:33;;;;;;;0.00;0.00;;;;;;;;;;5076029;28;20472;-87
2023/05/24 13:26:58;;;;;;;0.00;0.00;;;;;;;;;;5071735;28;20037;-85
2023/05/24 13:29:24;;;;;;;0.10;0.10;;;;;;;;;;5051693;28;20028;-84
2023/05/24 13:31:49;;;;;;;0.10;0.10;;;;;;;;;;5082755;28;20036;-83
2023/05/24 13:34:16;;;;;;;0.00;0.00;;;;;;;;;;5075955;28;20491;-85
2023/05/24 13:36:42;;;;;;;0.03;0.03;;;;;;;;;;5081127;28;20117;-87
2023/05/24 13:39:08;;;;;;;0.00;0.00;;;;;;;;;;5080817;28;20627;-86
2023/05/24 13:41:34;;;;;;;0.10;0.10;;;;;;;;;;5070344;28;20024;-88
2023/05/24 13:44:00;;;;;;;0.00;0.00;;;;;;;;;;5070935;28;20046;-86
2023/05/24 13:46:27;;;;;;;0.00;0.00;;;;;;;;;;5076072;28;20531;-83
2023/05/24 13:48:54;;;;;;;0.10;0.10;;;;;;;;;;5071400;28;20013;-83
2023/05/24 13:51:21;;;;;;;0.00;0.00;;;;;;;;;;5053550;28;20032;-86
2023/05/24 13:53:47;;;;;;;0.35;0.30;;;;;;;;;;5053352;28;20127;-83
2023/05/24 13:56:13;;;;;;;0.00;0.00;;;;;;;;;;5072780;28;20111;-84
2023/05/24 13:58:38;;;;;;;0.10;0.10;;;;;;;;;;5076474;28;20029;-84
2023/05/24 14:01:03;;;;;;;0.05;0.00;;;;;;;;;;5070501;28;21131;-85
2023/05/24 14:03:29;;;;;;;0.10;0.10;;;;;;;;;;5078245;28;20056;-84
2023/05/24 14:05:54;;;;;;;0.10;0.10;;;;;;;;;;5069827;28;20024;-86
2023/05/24 14:08:20;;;;;;;0.00;0.00;;;;;;;;;;5071894;28;20047;-83
2023/05/24 14:10:48;;;;;;;0.00;0.00;;;;;;;;;;5076950;28;20052;-85
2023/05/24 14:13:14;;;;;;;0.05;0.05;;;;;;;;;;5071206;28;20029;-83
2023/05/24 14:15:40;;;;;;;0.00;0.00;;;;;;;;;;5082616;28;20024;-86
2023/05/24 14:18:06;;;;;;;0.40;0.40;;;;;;;;;;5062121;28;20020;-85
2023/05/24 14:20:33;;;;;;;0.00;0.00;;;;;;;;;;5077573;28;20028;-84
2023/05/24 14:22:58;;;;;;;0.00;0.00;;;;;;;;;;5056797;28;20036;-80
2023/05/24 14:25:24;;;;;;;0.17;0.10;;;;;;;;;;5060017;28;20024;-85
2023/05/24 14:27:49;;;;;;;0.80;0.10;;;;;;;;;;5079891;28;20468;-83
2023/05/24 14:30:14;;;;;;;0.10;0.10;;;;;;;;;;5082026;28;20024;-86
2023/05/24 14:32:40;;;;;;;0.03;0.03;;;;;;;;;;5081745;28;20117;-84
2023/05/24 14:35:06;;;;;;;0.10;0.10;;;;;;;;;;5073242;28;20028;-85
2023/05/24 14:37:31;;;;;;;0.00;0.00;;;;;;;;;;5062381;28;20032;-85
2023/05/24 14:39:57;;;;;;;0.28;0.22;;;;;;;;;;5055193;28;20032;-85
2023/05/24 14:42:22;;;;;;;0.08;0.08;;;;;;;;;;5082560;28;20029;-88
2023/05/24 14:44:47;;;;;;;0.13;0.13;;;;;;;;;;5061656;28;20031;-86
2023/05/24 14:47:13;;;;;;;0.00;0.00;;;;;;;;;;5054589;28;20194;-85
2023/05/24 14:49:38;;;;;;;0.17;0.17;;;;;;;;;;5080056;28;20024;-88
2023/05/24 14:52:04;;;;;;;0.00;0.00;;;;;;;;;;5057691;28;20020;-88
2023/05/24 14:54:29;;;;;;;0.00;0.00;;;;;;;;;;5078605;28;20035;-88
2023/05/24 14:56:55;;;;;;;0.00;0.00;;;;;;;;;;5082835;28;20036;-87
2023/05/24 14:59:20;;;;;;;0.08;0.08;;;;;;;;;;5082150;28;20024;-86
2023/05/24 15:01:45;;;;;;;0.00;0.00;;;;;;;;;;5075135;28;20024;-87
2023/05/24 15:04:11;;;;;;;0.00;0.00;;;;;;;;;;5074256;28;20054;-88
2023/05/24 15:06:37;;;;;;;1.35;0.30;;;;;;;;;;5059430;28;20020;-87
2023/05/24 15:09:05;;;;;;;0.00;0.00;;;;;;;;;;5081670;28;20031;-87